Time;durP1;ratioP1;P1;durP2;ratioP2;P2;SDS_P1;SDS_P2;PMS_P1;PMS_P2;Temp;Humidity;BMP_temperature;BMP_pressure;BME280_temperature;BME280_humidity;BME280_pressure;Samples;Min_cycle;Max_cycle;Signal;HPM_P1;HPM_P2
2021/12/07 00:00:17;;;;;;;68.18;31.30;;;1.10;99.90;;;;;;5112930;28;20024;-46
2021/12/07 00:02:43;;;;;;;62.72;28.92;;;1.10;99.90;;;;;;5111549;28;20028;-49
2021/12/07 00:05:09;;;;;;;62.03;30.48;;;1.10;99.90;;;;;;5112775;28;20030;-48
2021/12/07 00:07:35;;;;;;;63.03;31.00;;;1.10;99.90;;;;;;5109879;28;20521;-49
2021/12/07 00:10:04;;;;;;;64.88;32.35;;;1.10;99.90;;;;;;5103939;28;20405;-48
2021/12/07 00:12:35;;;;;;;62.40;27.67;;;1.10;99.90;;;;;;5112741;28;20032;-46
2021/12/07 00:15:03;;;;;;;63.97;30.33;;;1.10;99.90;;;;;;5112805;28;20023;-46
2021/12/07 00:17:30;;;;;;;64.40;30.42;;;1.10;99.90;;;;;;5111974;28;20406;-52
2021/12/07 00:19:56;;;;;;;59.40;29.35;;;1.00;99.90;;;;;;5112318;28;20465;-47
2021/12/07 00:22:22;;;;;;;63.33;28.85;;;1.00;99.90;;;;;;5112537;28;20035;-48
2021/12/07 00:24:47;;;;;;;60.65;28.92;;;1.00;99.90;;;;;;5112524;28;20028;-47
2021/12/07 00:27:13;;;;;;;65.13;28.60;;;1.00;99.90;;;;;;5112065;28;20031;-47
2021/12/07 00:29:39;;;;;;;63.88;29.58;;;1.00;99.90;;;;;;5112320;27;20389;-48
2021/12/07 00:37:22;;;;;;;62.60;28.85;;;1.10;99.90;;;;;;5109674;28;20389;-48
2021/12/07 00:39:47;;;;;;;58.75;28.73;;;1.00;99.90;;;;;;5102174;28;20023;-48
2021/12/07 00:42:13;;;;;;;61.58;28.38;;;1.00;99.90;;;;;;5110963;28;20055;-48
2021/12/07 00:44:38;;;;;;;62.17;27.90;;;1.10;99.90;;;;;;5112199;28;20035;-50
2021/12/07 00:47:04;;;;;;;63.92;28.08;;;1.00;99.90;;;;;;5111978;28;20415;-50
2021/12/07 00:49:29;;;;;;;62.38;27.20;;;1.00;99.90;;;;;;5111688;28;20028;-50
2021/12/07 00:51:55;;;;;;;59.58;28.25;;;1.10;99.90;;;;;;5110257;28;20024;-47
2021/12/07 00:54:21;;;;;;;67.15;30.73;;;1.10;99.90;;;;;;5111715;28;20085;-47
2021/12/07 00:56:47;;;;;;;61.70;28.55;;;1.10;99.90;;;;;;5111551;28;20482;-48
2021/12/07 00:59:13;;;;;;;59.08;27.73;;;1.10;99.90;;;;;;5111165;28;20042;-48
2021/12/07 01:01:38;;;;;;;63.92;29.75;;;1.10;99.90;;;;;;5111620;28;20038;-48
2021/12/07 01:04:04;;;;;;;66.47;30.30;;;1.10;99.90;;;;;;5111807;28;20019;-50
2021/12/07 01:07:01;;;;;;;65.22;30.48;;;1.10;99.90;;;;;;5112096;28;20019;-51
2021/12/07 01:09:27;;;;;;;59.33;29.08;;;1.10;99.90;;;;;;5102605;28;20476;-50
2021/12/07 01:25:52;;;;;;;73.63;34.22;;;1.10;99.90;;;;;;5111302;28;20076;-47
2021/12/07 01:28:25;;;;;;;71.38;32.08;;;1.00;99.90;;;;;;5110635;28;20377;-47
2021/12/07 01:44:26;;;;;;;65.63;31.15;;;1.00;99.90;;;;;;5077984;28;20036;-46
2021/12/07 01:50:09;;;;;;;65.35;31.63;;;1.10;99.90;;;;;;5090452;28;20553;-46
2021/12/07 01:52:54;;;;;;;74.38;32.95;;;1.10;99.90;;;;;;5090590;28;20040;-47
2021/12/07 02:00:48;;;;;;;78.10;36.20;;;1.10;99.90;;;;;;5090664;28;20063;-48
2021/12/07 02:03:14;;;;;;;82.47;36.15;;;1.10;99.90;;;;;;5090431;28;20028;-47
2021/12/07 02:05:40;;;;;;;76.57;35.88;;;1.10;99.90;;;;;;5090460;28;20024;-47
2021/12/07 02:08:06;;;;;;;83.47;37.65;;;1.10;99.90;;;;;;5096936;28;20036;-47
2021/12/07 02:10:32;;;;;;;75.70;38.28;;;1.10;99.90;;;;;;5104376;28;20012;-47
2021/12/07 02:13:04;;;;;;;85.63;40.85;;;1.10;99.90;;;;;;5110635;28;20419;-47
2021/12/07 02:15:31;;;;;;;80.10;38.50;;;1.10;99.90;;;;;;5110780;28;20050;-47
2021/12/07 02:17:56;;;;;;;79.65;39.50;;;1.10;99.90;;;;;;5110011;28;20032;-46
2021/12/07 02:20:38;;;;;;;79.35;37.15;;;1.10;99.90;;;;;;5109327;28;20042;-47
2021/12/07 02:23:03;;;;;;;75.55;35.45;;;1.10;99.90;;;;;;5110612;28;20546;-47
2021/12/07 02:25:32;;;;;;;77.93;36.90;;;1.10;99.90;;;;;;5110250;28;20023;-47
2021/12/07 02:27:57;;;;;;;75.25;34.67;;;1.10;99.90;;;;;;5109954;28;20024;-48
2021/12/07 02:30:32;;;;;;;79.47;37.95;;;1.10;99.90;;;;;;5110531;28;20026;-47
2021/12/07 02:32:57;;;;;;;76.63;36.38;;;1.10;99.90;;;;;;5110371;28;20026;-47
2021/12/07 02:35:26;;;;;;;83.18;38.33;;;1.10;99.90;;;;;;5109162;28;20110;-46
2021/12/07 02:37:53;;;;;;;88.28;37.22;;;1.10;99.90;;;;;;5109603;28;20410;-49
2021/12/07 02:40:19;;;;;;;73.43;37.88;;;1.10;99.90;;;;;;5096558;28;20031;-49
2021/12/07 02:42:45;;;;;;;75.78;37.22;;;1.10;99.90;;;;;;5090001;28;20028;-48
2021/12/07 02:45:11;;;;;;;81.15;38.88;;;1.10;99.90;;;;;;5093907;28;20028;-50
2021/12/07 02:47:37;;;;;;;75.68;36.28;;;1.10;99.90;;;;;;5093042;28;20047;-47
2021/12/07 02:50:06;;;;;;;84.10;38.47;;;1.10;99.90;;;;;;5092595;28;20023;-47
2021/12/07 02:52:31;;;;;;;81.72;38.25;;;1.20;99.90;;;;;;5093723;28;20016;-47
2021/12/07 02:54:57;;;;;;;69.97;35.30;;;1.20;99.90;;;;;;5093466;28;20035;-47
2021/12/07 02:57:23;;;;;;;79.85;37.25;;;1.20;99.90;;;;;;5092103;28;20146;-46
2021/12/07 02:59:58;;;;;;;79.53;37.05;;;1.20;99.90;;;;;;5092793;28;20477;-48
2021/12/07 03:02:24;;;;;;;80.50;38.33;;;1.20;99.90;;;;;;5093331;28;20051;-47
2021/12/07 03:05:01;;;;;;;76.70;37.13;;;1.20;99.90;;;;;;5093650;28;20477;-48
2021/12/07 03:26:37;;;;;;;87.00;39.72;;;1.20;99.90;;;;;;5113552;28;20084;-49
2021/12/07 03:29:03;;;;;;;85.60;40.03;;;1.20;99.90;;;;;;5113269;28;20028;-47
2021/12/07 03:31:30;;;;;;;91.18;41.63;;;1.20;99.90;;;;;;5113541;28;20098;-48
2021/12/07 03:33:58;;;;;;;90.90;41.58;;;1.20;99.90;;;;;;5113457;28;20023;-48
2021/12/07 03:36:25;;;;;;;80.32;38.50;;;1.20;99.90;;;;;;5113518;27;20039;-50
2021/12/07 03:38:51;;;;;;;86.30;38.97;;;1.20;99.90;;;;;;5104153;28;20367;-50
2021/12/07 03:41:17;;;;;;;92.88;42.33;;;1.20;99.90;;;;;;5072513;28;20059;-48
2021/12/07 03:43:43;;;;;;;93.32;43.55;;;1.20;99.90;;;;;;5071423;28;20033;-48
2021/12/07 03:46:09;;;;;;;88.20;39.92;;;1.20;99.90;;;;;;5072472;28;20118;-47
2021/12/07 03:48:36;;;;;;;85.43;38.80;;;1.20;99.90;;;;;;5072210;28;20020;-47
2021/12/07 03:51:02;;;;;;;83.93;40.47;;;1.20;99.90;;;;;;5072692;28;20024;-47
2021/12/07 03:53:28;;;;;;;80.35;38.30;;;1.20;99.90;;;;;;5072531;28;20049;-48
2021/12/07 03:55:55;;;;;;;78.40;39.95;;;1.20;99.90;;;;;;5071701;28;20101;-47
2021/12/07 03:58:22;;;;;;;81.10;37.30;;;1.10;99.90;;;;;;5071927;28;20035;-51
2021/12/07 04:00:47;;;;;;;76.07;37.45;;;1.10;99.90;;;;;;5071933;28;20119;-48
2021/12/07 04:03:15;;;;;;;81.50;38.63;;;1.20;99.90;;;;;;5071071;28;20112;-46
2021/12/07 04:05:45;;;;;;;85.82;40.28;;;1.20;99.90;;;;;;5076755;28;20023;-46
2021/12/07 04:08:31;;;;;;;77.78;38.08;;;1.20;99.90;;;;;;5092609;28;20040;-46
2021/12/07 04:10:57;;;;;;;87.63;40.42;;;1.20;99.90;;;;;;5094031;28;20066;-49
2021/12/07 04:13:23;;;;;;;83.47;39.90;;;1.20;99.90;;;;;;5092113;28;20052;-46
2021/12/07 04:15:49;;;;;;;82.28;38.83;;;1.20;99.90;;;;;;5091353;28;20031;-48
2021/12/07 04:18:15;;;;;;;80.88;38.25;;;1.20;99.90;;;;;;5091348;28;20099;-47
2021/12/07 04:20:40;;;;;;;83.78;40.08;;;1.20;99.90;;;;;;5092034;28;20063;-46
2021/12/07 04:23:07;;;;;;;85.25;38.53;;;1.20;99.90;;;;;;5091641;28;20032;-47
2021/12/07 04:25:33;;;;;;;76.80;36.92;;;1.20;99.90;;;;;;5091635;28;20028;-47
2021/12/07 04:27:59;;;;;;;73.05;34.33;;;1.20;99.90;;;;;;5091392;28;20387;-49
2021/12/07 04:30:30;;;;;;;71.50;34.42;;;1.20;99.90;;;;;;5091828;28;20024;-48
2021/12/07 04:32:55;;;;;;;73.38;36.50;;;1.20;99.90;;;;;;5091487;28;20028;-48
2021/12/07 04:35:21;;;;;;;78.45;37.25;;;1.30;99.90;;;;;;5091009;28;20515;-48
2021/12/07 04:37:47;;;;;;;72.35;35.22;;;1.30;99.90;;;;;;5090276;28;20046;-50
2021/12/07 04:40:20;;;;;;;71.78;35.72;;;1.30;99.90;;;;;;5101630;28;20016;-50
2021/12/07 04:42:46;;;;;;;71.20;33.80;;;1.30;99.90;;;;;;5102126;28;20053;-47
2021/12/07 04:45:26;;;;;;;70.50;34.30;;;1.30;99.90;;;;;;5097093;28;20072;-47
2021/12/07 04:57:37;;;;;;;76.13;34.45;;;1.30;99.90;;;;;;5091611;28;20077;-48
2021/12/07 04:58:56;;;;;;;67.63;33.53;;;1.30;99.90;;;;;;5091312;28;20264;-48
2021/12/07 05:01:21;;;;;;;70.45;33.15;;;1.30;99.90;;;;;;5090962;28;20603;-48
2021/12/07 05:03:49;;;;;;;68.85;33.25;;;1.40;99.90;;;;;;5090537;28;20085;-48
2021/12/07 05:06:16;;;;;;;63.42;31.23;;;1.40;99.90;;;;;;5090043;28;20420;-47
2021/12/07 05:08:53;;;;;;;70.13;33.92;;;1.30;99.90;;;;;;5089974;28;20016;-49
2021/12/07 05:24:26;;;;;;;71.60;32.22;;;1.40;99.90;;;;;;5111392;28;20408;-49
2021/12/07 05:40:06;;;;;;;60.28;29.23;;;1.50;99.90;;;;;;5099113;28;20618;-47
2021/12/07 05:42:32;;;;;;;63.00;31.23;;;1.50;99.90;;;;;;5088828;28;20464;-47
2021/12/07 05:44:57;;;;;;;60.83;27.52;;;1.40;99.90;;;;;;5090278;28;20100;-50
2021/12/07 05:47:23;;;;;;;62.50;30.55;;;1.40;99.90;;;;;;5089007;28;20641;-47
2021/12/07 05:49:49;;;;;;;60.90;28.90;;;1.40;99.90;;;;;;5089611;28;20021;-48
2021/12/07 05:52:15;;;;;;;60.58;30.23;;;1.50;99.90;;;;;;5089728;28;20027;-46
2021/12/07 05:54:41;;;;;;;63.05;30.27;;;1.40;99.90;;;;;;5090311;28;20031;-46
2021/12/07 05:57:06;;;;;;;65.03;29.88;;;1.40;99.90;;;;;;5089552;28;20089;-47
2021/12/07 05:59:32;;;;;;;62.38;31.13;;;1.40;99.90;;;;;;5085402;28;20048;-46
2021/12/07 06:01:58;;;;;;;61.33;30.00;;;1.40;99.90;;;;;;5090179;28;20036;-47
2021/12/07 06:04:23;;;;;;;64.55;30.73;;;1.40;99.90;;;;;;5090277;28;20028;-47
2021/12/07 06:06:49;;;;;;;62.70;28.92;;;1.40;99.90;;;;;;5090272;28;20107;-47
2021/12/07 06:09:14;;;;;;;63.47;31.65;;;1.40;99.90;;;;;;5091104;28;20040;-47
2021/12/07 06:11:42;;;;;;;58.92;28.75;;;1.40;99.90;;;;;;5104467;28;20028;-48
2021/12/07 06:14:09;;;;;;;58.55;29.67;;;1.40;99.90;;;;;;5109525;28;20020;-47
2021/12/07 06:16:35;;;;;;;57.70;29.63;;;1.40;99.90;;;;;;5109470;28;20072;-48
2021/12/07 06:19:00;;;;;;;61.58;29.60;;;1.50;99.90;;;;;;5111040;28;20023;-50
2021/12/07 06:21:26;;;;;;;58.83;28.63;;;1.50;99.90;;;;;;5114692;28;20562;-48
2021/12/07 06:23:53;;;;;;;60.22;30.38;;;1.50;99.90;;;;;;5109338;28;20058;-50
2021/12/07 06:26:19;;;;;;;55.63;29.13;;;1.50;99.90;;;;;;5081910;28;20047;-49
2021/12/07 06:28:44;;;;;;;62.17;31.45;;;1.40;99.90;;;;;;5088035;28;20398;-50
2021/12/07 06:31:10;;;;;;;58.28;29.80;;;1.50;99.90;;;;;;5087129;28;20123;-49
2021/12/07 06:33:36;;;;;;;60.42;29.73;;;1.50;99.90;;;;;;5093876;28;20070;-51
2021/12/07 06:36:03;;;;;;;60.92;30.45;;;1.50;99.90;;;;;;5096754;28;20016;-49
2021/12/07 06:38:31;;;;;;;58.65;29.83;;;1.50;99.90;;;;;;5083665;28;20021;-50
2021/12/07 06:40:58;;;;;;;63.03;30.63;;;1.60;99.90;;;;;;5093502;28;20031;-49
2021/12/07 06:43:24;;;;;;;61.08;30.27;;;1.50;99.90;;;;;;5094087;28;20035;-49
2021/12/07 06:45:50;;;;;;;56.63;28.23;;;1.50;99.90;;;;;;5093897;28;20583;-50
2021/12/07 06:48:15;;;;;;;58.17;30.08;;;1.60;99.90;;;;;;5074534;28;20033;-50
2021/12/07 06:50:41;;;;;;;58.95;29.55;;;1.60;99.90;;;;;;5073419;28;20032;-49
2021/12/07 06:53:06;;;;;;;59.97;28.70;;;1.60;99.90;;;;;;5073347;28;20036;-48
2021/12/07 06:55:32;;;;;;;63.83;30.27;;;1.60;99.90;;;;;;5073245;28;20086;-49
2021/12/07 06:57:58;;;;;;;66.95;31.67;;;1.60;99.90;;;;;;5072905;28;20544;-49
2021/12/07 07:00:24;;;;;;;63.05;29.50;;;1.60;99.90;;;;;;5091926;28;20028;-48
2021/12/07 07:02:50;;;;;;;62.40;30.75;;;1.60;99.90;;;;;;5093749;28;20460;-48
2021/12/07 07:05:17;;;;;;;59.95;30.98;;;1.60;99.90;;;;;;5093987;28;20020;-48
2021/12/07 07:07:43;;;;;;;64.00;30.77;;;1.60;99.90;;;;;;5092985;28;20023;-49
2021/12/07 07:10:13;;;;;;;59.95;27.83;;;1.60;99.90;;;;;;5104624;28;20024;-49
2021/12/07 07:12:39;;;;;;;48.70;25.27;;;1.60;99.90;;;;;;5113982;28;20023;-48
2021/12/07 07:15:06;;;;;;;60.08;28.90;;;1.60;99.90;;;;;;5113991;28;20095;-49
2021/12/07 07:17:32;;;;;;;67.70;31.33;;;1.60;99.90;;;;;;5113312;28;20031;-48
2021/12/07 07:19:58;;;;;;;58.50;29.38;;;1.60;99.90;;;;;;5092805;28;20146;-48
2021/12/07 07:22:23;;;;;;;61.63;28.67;;;1.60;99.90;;;;;;5073739;28;20029;-48
2021/12/07 07:24:49;;;;;;;58.65;29.30;;;1.60;99.90;;;;;;5092486;28;20024;-48
2021/12/07 07:27:15;;;;;;;61.90;29.85;;;1.60;99.90;;;;;;5092287;28;20029;-49
2021/12/07 07:29:40;;;;;;;57.63;28.95;;;1.70;99.90;;;;;;5085831;28;20153;-50
2021/12/07 07:32:06;;;;;;;55.65;29.27;;;1.60;99.90;;;;;;5106403;28;20465;-48
2021/12/07 07:34:32;;;;;;;57.53;28.73;;;1.70;99.90;;;;;;5092346;28;20111;-48
2021/12/07 07:36:57;;;;;;;58.97;29.85;;;1.60;99.90;;;;;;5077212;28;20035;-48
2021/12/07 07:39:23;;;;;;;63.05;30.45;;;1.70;99.90;;;;;;5099910;28;20023;-48
2021/12/07 07:41:49;;;;;;;59.50;30.38;;;1.60;99.90;;;;;;5095635;28;20039;-48
2021/12/07 07:44:15;;;;;;;61.45;31.45;;;1.70;99.90;;;;;;5081887;28;20033;-48
2021/12/07 07:46:41;;;;;;;60.85;29.35;;;1.70;99.90;;;;;;5071677;28;20074;-48
2021/12/07 07:49:09;;;;;;;58.30;29.25;;;1.70;99.90;;;;;;5084594;28;20123;-48
2021/12/07 07:51:41;;;;;;;58.80;29.60;;;1.70;99.90;;;;;;5091380;28;20028;-49
2021/12/07 07:54:09;;;;;;;60.13;30.35;;;1.70;99.90;;;;;;5100666;28;20067;-49
2021/12/07 07:56:36;;;;;;;63.40;30.50;;;1.70;99.90;;;;;;5098296;28;20111;-51
2021/12/07 07:59:02;;;;;;;61.40;28.80;;;1.70;99.90;;;;;;5111450;28;20016;-48
2021/12/07 08:01:30;;;;;;;60.88;27.65;;;1.70;99.90;;;;;;5087408;28;20393;-51
2021/12/07 08:03:57;;;;;;;64.47;29.80;;;1.70;99.90;;;;;;5072225;28;20074;-51
2021/12/07 08:06:23;;;;;;;62.08;28.38;;;1.70;99.90;;;;;;5071042;28;20706;-49
2021/12/07 08:08:48;;;;;;;60.60;29.25;;;1.70;99.90;;;;;;5074217;28;20040;-48
2021/12/07 08:11:14;;;;;;;54.28;29.13;;;1.70;99.90;;;;;;5106773;28;20522;-48
2021/12/07 08:13:40;;;;;;;51.42;26.77;;;1.70;99.90;;;;;;5100350;28;20458;-48
2021/12/07 08:16:15;;;;;;;61.63;29.20;;;1.80;99.90;;;;;;5092295;28;20024;-48
2021/12/07 08:18:47;;;;;;;56.30;29.13;;;1.80;99.90;;;;;;5076468;28;20032;-48
2021/12/07 08:21:14;;;;;;;61.55;29.25;;;1.80;99.90;;;;;;5071803;28;20032;-48
2021/12/07 08:23:40;;;;;;;59.25;28.38;;;1.80;99.90;;;;;;5091341;28;20626;-48
2021/12/07 08:26:08;;;;;;;57.47;28.02;;;1.90;99.90;;;;;;5097670;28;20103;-49
2021/12/07 08:28:34;;;;;;;49.60;27.20;;;1.90;99.90;;;;;;5078450;28;20021;-49
2021/12/07 08:31:00;;;;;;;58.55;28.45;;;1.90;99.90;;;;;;5106495;28;20034;-48
2021/12/07 08:33:26;;;;;;;57.42;27.50;;;1.90;99.90;;;;;;5092095;28;20063;-49
2021/12/07 08:35:52;;;;;;;57.58;27.95;;;1.90;99.90;;;;;;5076021;28;20481;-49
2021/12/07 08:38:18;;;;;;;60.92;29.17;;;2.00;99.90;;;;;;5093481;28;20035;-48
2021/12/07 08:40:45;;;;;;;54.38;27.08;;;2.00;99.90;;;;;;5102789;28;20461;-48
2021/12/07 08:43:12;;;;;;;57.53;28.15;;;2.00;99.90;;;;;;5085606;28;20028;-50
2021/12/07 08:45:40;;;;;;;53.67;27.10;;;2.00;99.90;;;;;;5072378;28;20109;-49
2021/12/07 08:48:08;;;;;;;56.53;27.13;;;2.10;99.90;;;;;;5085381;28;20606;-49
2021/12/07 08:50:33;;;;;;;53.63;28.30;;;2.10;99.90;;;;;;5088347;28;20465;-49
2021/12/07 08:53:03;;;;;;;57.30;28.42;;;2.10;99.90;;;;;;5091943;28;20035;-52
2021/12/07 09:01:03;;;;;;;52.70;26.27;;;2.10;99.90;;;;;;5071179;28;20175;-48
2021/12/07 09:03:29;;;;;;;54.20;27.70;;;2.10;99.90;;;;;;5085328;28;20023;-50
2021/12/07 09:05:55;;;;;;;56.03;28.02;;;2.20;99.90;;;;;;5091494;28;20161;-48
2021/12/07 09:08:20;;;;;;;53.00;27.90;;;2.20;99.90;;;;;;5083974;28;20580;-48
2021/12/07 09:10:46;;;;;;;53.20;26.90;;;2.30;99.90;;;;;;5103163;28;20027;-51
2021/12/07 09:13:11;;;;;;;54.92;27.88;;;2.30;99.90;;;;;;5111029;28;20496;-50
2021/12/07 09:15:38;;;;;;;55.17;28.17;;;2.30;99.90;;;;;;5086483;28;20024;-50
2021/12/07 09:18:04;;;;;;;53.33;26.85;;;2.30;99.90;;;;;;5072872;28;20039;-50
2021/12/07 09:20:30;;;;;;;49.50;26.42;;;2.40;99.90;;;;;;5089618;28;20049;-50
2021/12/07 09:22:56;;;;;;;53.20;25.90;;;2.40;99.90;;;;;;5070673;28;20048;-49
2021/12/07 09:25:22;;;;;;;52.97;27.60;;;2.40;99.90;;;;;;5085006;28;20073;-49
2021/12/07 09:27:47;;;;;;;56.33;29.23;;;2.50;99.90;;;;;;5070559;28;20032;-51
2021/12/07 09:30:16;;;;;;;55.25;26.75;;;2.50;99.90;;;;;;5070718;28;20481;-49
2021/12/07 09:32:43;;;;;;;59.30;28.20;;;2.50;99.90;;;;;;5085266;28;20394;-51
2021/12/07 09:35:10;;;;;;;55.22;27.52;;;2.50;99.90;;;;;;5083180;28;20055;-49
2021/12/07 09:37:36;;;;;;;56.65;27.48;;;2.50;99.90;;;;;;5069879;28;20082;-49
2021/12/07 09:40:09;;;;;;;49.88;26.80;;;2.50;99.90;;;;;;5097820;28;20058;-49
2021/12/07 09:42:34;;;;;;;52.85;27.70;;;2.50;99.90;;;;;;5089111;28;20127;-51
2021/12/07 09:45:00;;;;;;;54.65;26.33;;;2.60;99.90;;;;;;5089582;28;20106;-50
2021/12/07 09:47:26;;;;;;;52.55;26.40;;;2.70;99.90;;;;;;5087140;28;20098;-52
2021/12/07 09:49:52;;;;;;;54.00;26.67;;;2.80;99.90;;;;;;5103827;28;20028;-50
2021/12/07 09:52:17;;;;;;;54.17;26.13;;;2.80;99.90;;;;;;5098952;28;20036;-49
2021/12/07 09:54:43;;;;;;;51.13;26.20;;;2.80;99.90;;;;;;5072349;28;20402;-51
2021/12/07 09:57:09;;;;;;;46.58;25.58;;;2.90;99.90;;;;;;5090480;28;20111;-51
2021/12/07 09:59:34;;;;;;;50.88;25.13;;;2.90;99.90;;;;;;5090003;28;20554;-50
2021/12/07 10:02:03;;;;;;;52.28;26.77;;;2.90;99.90;;;;;;5090734;28;20031;-52
2021/12/07 10:04:29;;;;;;;51.95;26.98;;;2.90;99.90;;;;;;5090392;28;20081;-50
2021/12/07 10:06:55;;;;;;;49.35;25.98;;;2.80;99.90;;;;;;5090373;28;20473;-51
2021/12/07 10:09:21;;;;;;;46.60;25.27;;;2.80;99.90;;;;;;5096542;28;20022;-50
2021/12/07 10:11:51;;;;;;;53.83;27.85;;;2.80;99.90;;;;;;5106599;28;20044;-50
2021/12/07 10:14:17;;;;;;;51.55;26.58;;;2.80;99.90;;;;;;5098307;28;20039;-49
2021/12/07 10:16:46;;;;;;;46.03;24.20;;;2.80;99.90;;;;;;5090607;28;20040;-52
2021/12/07 10:19:15;;;;;;;51.47;25.65;;;2.80;99.90;;;;;;5075198;28;20159;-52
2021/12/07 10:21:43;;;;;;;46.40;25.65;;;2.90;99.90;;;;;;5068894;28;20035;-52
2021/12/07 10:24:11;;;;;;;49.65;26.52;;;2.90;99.90;;;;;;5070160;28;20020;-52
2021/12/07 10:26:43;;;;;;;53.38;27.38;;;2.90;99.90;;;;;;5098626;28;20481;-52
2021/12/07 10:29:14;;;;;;;45.35;23.80;;;2.90;99.90;;;;;;5082913;28;20551;-52
2021/12/07 10:32:01;;;;;;;49.00;24.10;;;2.90;99.90;;;;;;5068774;28;20056;-52
2021/12/07 10:34:33;;;;;;;46.08;23.88;;;3.00;99.90;;;;;;5070066;28;20039;-51
2021/12/07 10:37:16;;;;;;;44.45;24.55;;;3.10;99.90;;;;;;5069705;28;20031;-52
2021/12/07 10:39:48;;;;;;;44.75;23.67;;;3.20;99.90;;;;;;5088498;28;20052;-51
2021/12/07 10:42:29;;;;;;;42.78;23.63;;;3.30;99.90;;;;;;5109930;28;20020;-51
2021/12/07 10:44:59;;;;;;;44.95;24.77;;;3.40;99.90;;;;;;5110629;28;20020;-52
2021/12/07 10:47:25;;;;;;;43.25;23.73;;;3.50;99.90;;;;;;5090859;28;20039;-52
2021/12/07 10:49:54;;;;;;;40.33;20.73;;;3.50;99.90;;;;;;5074331;28;20021;-52
2021/12/07 10:52:33;;;;;;;47.20;24.48;;;3.50;99.90;;;;;;5069921;28;20502;-50
2021/12/07 10:55:15;;;;;;;47.40;23.55;;;3.40;99.90;;;;;;5083495;28;20039;-51
2021/12/07 10:57:55;;;;;;;41.03;21.77;;;3.50;99.90;;;;;;5089719;28;20500;-50
2021/12/07 11:00:28;;;;;;;43.80;24.27;;;3.50;99.90;;;;;;5070028;28;20115;-52
2021/12/07 11:03:10;;;;;;;34.22;19.88;;;3.50;99.90;;;;;;5069926;28;20055;-50
2021/12/07 11:05:51;;;;;;;43.40;22.52;;;3.60;99.90;;;;;;5071790;28;20433;-51
2021/12/07 11:08:20;;;;;;;37.22;20.48;;;3.70;99.90;;;;;;5081524;28;20080;-51
2021/12/07 11:10:50;;;;;;;35.35;20.05;;;3.80;99.90;;;;;;5102069;28;20016;-52
2021/12/07 11:13:25;;;;;;;33.92;19.92;;;3.90;99.90;;;;;;5093763;28;20134;-51
2021/12/07 11:15:54;;;;;;;38.70;21.63;;;4.00;99.90;;;;;;5093763;28;20028;-49
2021/12/07 11:18:30;;;;;;;36.45;19.48;;;3.90;99.90;;;;;;5091938;28;20035;-52
2021/12/07 11:21:00;;;;;;;36.08;19.73;;;3.90;99.90;;;;;;5093816;28;20114;-52
2021/12/07 11:23:30;;;;;;;39.13;21.60;;;4.00;99.90;;;;;;5093561;28;20055;-51
2021/12/07 11:31:27;;;;;;;36.83;19.63;;;3.80;99.90;;;;;;5093227;28;20043;-43
2021/12/07 11:34:20;;;;;;;33.72;18.85;;;3.80;99.90;;;;;;5087200;28;20012;-43
2021/12/07 11:36:48;;;;;;;38.15;21.17;;;3.90;99.90;;;;;;5091336;28;20032;-51
2021/12/07 11:39:36;;;;;;;33.58;20.48;;;3.80;99.90;;;;;;5101109;28;20048;-52
2021/12/07 11:42:12;;;;;;;32.20;18.70;;;3.70;99.90;;;;;;5111396;28;20103;-50
2021/12/07 11:44:58;;;;;;;32.72;17.67;;;3.70;99.90;;;;;;5111664;28;20092;-49
2021/12/07 11:47:39;;;;;;;34.25;18.95;;;3.80;99.90;;;;;;5072372;28;20063;-48
2021/12/07 11:50:29;;;;;;;32.88;19.27;;;3.90;99.90;;;;;;5082930;28;20020;-51
2021/12/07 11:52:59;;;;;;;35.17;19.48;;;4.00;99.90;;;;;;5092976;28;20431;-50
2021/12/07 11:55:26;;;;;;;39.90;20.43;;;4.00;99.90;;;;;;5092871;28;20032;-48
2021/12/07 11:57:53;;;;;;;34.47;19.95;;;4.10;99.90;;;;;;5091391;28;20314;-49
2021/12/07 12:00:23;;;;;;;35.03;19.55;;;4.10;99.90;;;;;;5092677;28;20410;-50
2021/12/07 12:02:49;;;;;;;42.92;24.50;;;4.20;99.90;;;;;;5092147;28;20508;-49
2021/12/07 12:05:15;;;;;;;41.63;22.02;;;4.20;99.90;;;;;;5072524;28;20032;-48
2021/12/07 12:07:44;;;;;;;41.42;24.13;;;4.30;99.90;;;;;;5074912;28;20594;-49
2021/12/07 12:10:14;;;;;;;41.95;23.42;;;4.40;99.90;;;;;;5105472;28;20058;-49
2021/12/07 12:12:40;;;;;;;;;;;4.50;99.90;;;;;;5083309;28;20040;-49
2021/12/07 12:15:24;;;;;;;37.67;20.05;;;4.50;99.90;;;;;;5088853;28;19912;-51
2021/12/07 12:18:02;;;;;;;38.33;21.77;;;4.60;99.90;;;;;;5075875;28;20047;-48
2021/12/07 12:20:58;;;;;;;40.40;23.25;;;4.80;99.90;;;;;;5076103;28;20024;-48
2021/12/07 12:23:45;;;;;;;43.95;23.15;;;4.90;99.90;;;;;;5098985;28;20021;-49
2021/12/07 12:26:12;;;;;;;40.22;23.85;;;5.00;99.90;;;;;;5112025;28;20702;-50
2021/12/07 12:28:47;;;;;;;39.53;21.92;;;5.00;99.90;;;;;;5110435;28;20033;-48
2021/12/07 12:31:13;;;;;;;42.30;25.13;;;5.10;99.90;;;;;;5095436;28;20578;-50
2021/12/07 12:33:51;;;;;;;44.00;23.70;;;5.00;99.90;;;;;;5089485;28;20385;-49
2021/12/07 12:36:18;;;;;;;39.10;23.48;;;5.00;99.90;;;;;;5077692;28;20437;-50
2021/12/07 12:38:48;;;;;;;41.55;22.85;;;5.00;99.90;;;;;;5091349;28;20020;-50
2021/12/07 12:41:15;;;;;;;40.53;23.17;;;4.90;99.90;;;;;;5103657;28;20107;-47
2021/12/07 12:43:50;;;;;;;46.03;24.38;;;4.90;99.90;;;;;;5090406;28;20069;-46
2021/12/07 12:46:19;;;;;;;44.95;23.42;;;4.90;99.90;;;;;;5089785;28;20494;-48
2021/12/07 12:48:50;;;;;;;44.22;25.27;;;4.90;99.90;;;;;;5079674;28;20032;-50
2021/12/07 12:51:19;;;;;;;39.13;23.17;;;4.90;99.90;;;;;;5053696;28;20016;-49
2021/12/07 12:53:48;;;;;;;45.70;23.27;;;4.90;99.90;;;;;;5090435;28;20035;-49
2021/12/07 12:56:23;;;;;;;35.55;21.58;;;4.80;99.90;;;;;;5091124;28;20031;-48
2021/12/07 12:58:54;;;;;;;39.15;22.20;;;4.80;99.90;;;;;;5086321;28;20025;-50
2021/12/07 13:01:31;;;;;;;40.60;22.75;;;4.80;99.90;;;;;;5078379;28;20023;-48
2021/12/07 13:04:11;;;;;;;40.50;22.42;;;4.80;99.90;;;;;;5091379;28;20072;-48
2021/12/07 13:07:23;;;;;;;37.75;21.55;;;4.80;99.90;;;;;;5081201;28;20081;-49
2021/12/07 13:09:48;;;;;;;40.03;21.90;;;4.80;99.90;;;;;;5098156;28;20024;-51
2021/12/07 13:12:26;;;;;;;39.95;22.70;;;4.80;99.90;;;;;;5099919;28;20031;-48
2021/12/07 13:15:05;;;;;;;39.63;22.23;;;4.80;99.90;;;;;;5089370;28;20029;-49
2021/12/07 13:17:43;;;;;;;42.33;23.25;;;4.70;99.90;;;;;;5070587;28;20830;-51
2021/12/07 13:20:44;;;;;;;41.92;22.42;;;4.80;99.90;;;;;;5091047;28;20028;-48
2021/12/07 13:23:10;;;;;;;;;;;4.80;99.90;;;;;;5069497;28;20041;-49
2021/12/07 13:25:51;;;;;;;40.00;22.58;;;4.80;99.90;;;;;;5077038;28;19953;-50
2021/12/07 13:28:26;;;;;;;32.70;19.42;;;4.80;99.90;;;;;;5089163;28;20123;-51
2021/12/07 13:31:13;;;;;;;41.58;22.65;;;4.80;99.90;;;;;;5090673;28;20515;-48
2021/12/07 13:33:48;;;;;;;38.85;21.67;;;4.70;99.90;;;;;;5071625;28;20073;-49
2021/12/07 13:36:40;;;;;;;43.33;23.55;;;4.70;99.90;;;;;;5079188;28;20080;-49
2021/12/07 13:39:10;;;;;;;32.40;19.02;;;4.60;99.90;;;;;;5088187;28;20036;-48
2021/12/07 13:41:47;;;;;;;37.42;21.17;;;4.60;99.90;;;;;;5087759;28;20035;-51
2021/12/07 13:44:13;;;;;;;35.83;20.83;;;4.60;99.90;;;;;;5102466;28;20031;-48
2021/12/07 13:46:38;;;;;;;31.02;18.23;;;4.50;99.90;;;;;;5099635;28;20032;-48
2021/12/07 13:49:07;;;;;;;38.38;21.05;;;4.40;99.90;;;;;;5078248;28;20029;-48
2021/12/07 13:51:34;;;;;;;36.00;20.42;;;4.40;99.90;;;;;;5089551;28;20036;-50
2021/12/07 13:54:01;;;;;;;38.28;20.55;;;4.30;99.90;;;;;;5090398;28;20024;-51
2021/12/07 13:56:31;;;;;;;39.97;21.08;;;4.30;99.90;;;;;;5090394;28;20056;-51
2021/12/07 13:58:58;;;;;;;;;;;4.20;99.90;;;;;;5090457;28;20032;-50
2021/12/07 14:01:27;;;;;;;38.30;21.20;;;4.20;99.90;;;;;;5085853;28;19911;-51
2021/12/07 14:03:53;;;;;;;33.50;20.40;;;4.20;99.90;;;;;;5102185;28;20020;-51
2021/12/07 14:06:19;;;;;;;38.90;22.70;;;4.20;99.90;;;;;;5110913;28;20507;-49
2021/12/07 14:08:45;;;;;;;39.72;22.88;;;4.10;99.90;;;;;;5107698;28;20542;-50
2021/12/07 14:11:14;;;;;;;38.38;21.70;;;4.10;99.90;;;;;;5102307;28;20020;-51
2021/12/07 14:13:46;;;;;;;35.33;20.08;;;4.00;99.90;;;;;;5110535;28;20024;-51
2021/12/07 14:16:14;;;;;;;38.25;21.27;;;4.00;99.90;;;;;;5110900;28;20039;-50
2021/12/07 14:18:43;;;;;;;36.97;20.85;;;4.00;99.90;;;;;;5110438;28;20019;-51
2021/12/07 14:21:09;;;;;;;35.22;19.17;;;4.00;99.90;;;;;;5110992;28;20047;-50
2021/12/07 14:23:36;;;;;;;39.33;20.17;;;4.00;99.90;;;;;;5110690;28;20554;-49
2021/12/07 14:26:08;;;;;;;36.08;19.45;;;4.00;99.90;;;;;;5110914;28;20035;-50
2021/12/07 14:28:37;;;;;;;32.45;18.42;;;4.00;99.90;;;;;;5108847;28;20400;-51
2021/12/07 14:31:15;;;;;;;34.65;19.48;;;4.00;99.90;;;;;;5110780;28;20032;-52
2021/12/07 14:34:09;;;;;;;40.13;22.42;;;4.00;99.90;;;;;;5110628;28;20020;-49